Aviation Digital Data Service (ADDS)

Output produced by TAFs form (0357 UTC 01 October 2014)
found at http://aviationweather.gov/adds/tafs/
 
KDMN 302320Z 0100/0124 27013G23KT P6SM FEW070 
     FM010200 29008KT P6SM SKC 
     FM011800 26015G25KT P6SM SKC